createdAt,value
2022-11-16T00:00:21.217Z,0.00
2022-11-16T00:01:21.204Z,0.00
2022-11-16T00:02:21.225Z,0.00
2022-11-16T00:03:21.170Z,0.00
2022-11-16T00:04:21.152Z,0.00
2022-11-16T00:05:25.535Z,0.00
2022-11-16T00:06:21.143Z,0.00
2022-11-16T00:07:21.206Z,0.00
2022-11-16T00:08:21.095Z,0.00
2022-11-16T00:09:21.106Z,0.00
2022-11-16T00:10:21.110Z,0.00
2022-11-16T00:11:21.070Z,0.00
2022-11-16T00:12:21.045Z,0.00
2022-11-16T00:13:21.037Z,0.00
2022-11-16T00:14:21.034Z,0.00
2022-11-16T00:15:21.007Z,0.00
2022-11-16T00:16:21.012Z,0.00
2022-11-16T00:17:21.006Z,0.00
2022-11-16T00:18:20.994Z,0.00
2022-11-16T00:19:20.948Z,0.00
2022-11-16T00:20:20.944Z,0.00
2022-11-16T00:21:20.926Z,0.00
2022-11-16T00:22:20.936Z,0.00
2022-11-16T00:23:20.912Z,0.00
2022-11-16T00:24:20.902Z,0.00
2022-11-16T00:25:20.874Z,0.00
2022-11-16T00:26:20.890Z,0.00
2022-11-16T00:27:20.847Z,0.00
2022-11-16T00:28:20.844Z,0.00
2022-11-16T00:29:20.818Z,0.00
2022-11-16T00:30:20.807Z,0.00
2022-11-16T00:31:20.804Z,0.00
2022-11-16T00:32:20.786Z,0.00
2022-11-16T00:33:20.766Z,0.00
2022-11-16T00:34:20.794Z,0.00
2022-11-16T00:35:20.736Z,0.00
2022-11-16T00:36:20.742Z,0.00
2022-11-16T00:37:20.712Z,0.00
2022-11-16T00:38:20.719Z,0.00
2022-11-16T00:39:20.702Z,0.00
2022-11-16T00:40:20.680Z,0.00
2022-11-16T00:41:20.677Z,0.00
2022-11-16T00:42:20.654Z,0.00
2022-11-16T00:43:20.627Z,0.00
2022-11-16T00:44:20.623Z,0.00
2022-11-16T00:45:20.601Z,0.00
2022-11-16T00:46:20.615Z,0.00
2022-11-16T00:47:20.588Z,0.00
2022-11-16T00:48:20.565Z,0.00
2022-11-16T00:49:20.572Z,0.00
2022-11-16T00:50:20.546Z,0.00
2022-11-16T00:51:20.527Z,0.00
2022-11-16T00:52:20.521Z,0.00
2022-11-16T00:53:20.500Z,0.00
2022-11-16T00:54:20.491Z,0.00
2022-11-16T00:55:20.480Z,0.00
2022-11-16T00:56:20.472Z,0.00
2022-11-16T00:57:20.445Z,0.00
2022-11-16T00:58:20.445Z,0.00
2022-11-16T00:59:20.414Z,0.00
2022-11-16T01:00:20.407Z,0.00
2022-11-16T01:01:20.407Z,0.00
2022-11-16T01:02:20.381Z,0.00
2022-11-16T01:03:20.357Z,0.00
2022-11-16T01:04:20.347Z,0.00
2022-11-16T01:05:20.333Z,0.00
2022-11-16T01:06:20.340Z,0.00
2022-11-16T01:07:20.366Z,0.00
2022-11-16T01:08:20.304Z,0.00
2022-11-16T01:09:20.279Z,0.00
2022-11-16T01:10:20.297Z,0.00
2022-11-16T01:11:20.275Z,0.00
2022-11-16T01:12:20.253Z,0.00
2022-11-16T01:13:20.233Z,0.00
2022-11-16T01:14:20.250Z,0.00
2022-11-16T01:15:20.209Z,0.00
2022-11-16T01:16:20.188Z,0.00
2022-11-16T01:17:20.179Z,0.00
2022-11-16T01:18:20.181Z,0.00
2022-11-16T01:19:20.163Z,0.00
2022-11-16T01:20:20.138Z,0.00
2022-11-16T01:21:20.131Z,0.00
2022-11-16T01:22:20.136Z,0.00
2022-11-16T01:23:20.098Z,0.00
2022-11-16T01:24:20.089Z,0.00
2022-11-16T01:25:20.053Z,0.00
2022-11-16T01:26:20.054Z,0.00
2022-11-16T01:27:20.081Z,0.00
2022-11-16T01:28:20.064Z,0.00
2022-11-16T01:29:20.012Z,0.00
2022-11-16T01:30:20.012Z,0.00
2022-11-16T01:31:20.007Z,0.00
2022-11-16T01:32:19.993Z,0.00
2022-11-16T01:33:19.969Z,0.00
2022-11-16T01:34:19.952Z,0.00
2022-11-16T01:35:19.929Z,0.00
2022-11-16T01:36:19.923Z,0.00
2022-11-16T01:37:19.944Z,0.00
2022-11-16T01:38:19.907Z,0.00
2022-11-16T01:39:19.880Z,0.00
2022-11-16T01:40:19.882Z,0.00
2022-11-16T01:41:19.899Z,0.00
2022-11-16T01:42:19.848Z,0.00
2022-11-16T01:43:19.821Z,0.00
2022-11-16T01:44:19.814Z,0.00
2022-11-16T01:45:19.794Z,0.00
2022-11-16T01:46:19.804Z,0.00
2022-11-16T01:47:19.781Z,0.00
2022-11-16T01:48:19.847Z,0.00
2022-11-16T01:49:19.755Z,0.00
2022-11-16T01:50:19.731Z,0.00
2022-11-16T01:51:19.727Z,0.00
2022-11-16T01:52:19.734Z,0.00
2022-11-16T01:53:20.600Z,0.00
2022-11-16T01:54:19.676Z,0.00
2022-11-16T01:55:19.670Z,0.00
2022-11-16T01:56:19.652Z,0.00
2022-11-16T01:57:19.668Z,0.00
2022-11-16T01:58:19.625Z,0.00
2022-11-16T01:59:19.630Z,0.00
2022-11-16T02:01:31.126Z,0.00
2022-11-16T02:02:32.041Z,0.00
2022-11-16T02:03:32.007Z,0.00
2022-11-16T02:04:31.993Z,0.00
2022-11-16T02:05:32.035Z,0.00
2022-11-16T02:06:31.959Z,0.00
2022-11-16T02:07:32.058Z,0.00
2022-11-16T02:08:32.491Z,0.00
2022-11-16T02:09:31.928Z,0.00
2022-11-16T02:10:31.914Z,0.00
2022-11-16T02:11:31.906Z,0.00
2022-11-16T02:12:31.880Z,0.00
2022-11-16T02:13:31.871Z,0.00
2022-11-16T02:14:31.869Z,0.00
2022-11-16T02:15:31.844Z,0.00
2022-11-16T02:16:31.835Z,0.00
2022-11-16T02:17:31.823Z,0.00
2022-11-16T02:18:32.241Z,0.00
2022-11-16T02:19:31.795Z,0.00
2022-11-16T02:20:31.774Z,0.00
2022-11-16T02:21:31.772Z,0.00
2022-11-16T02:22:31.742Z,0.00
2022-11-16T02:23:31.761Z,0.00
2022-11-16T02:24:31.714Z,0.00
2022-11-16T02:25:31.718Z,0.00
2022-11-16T02:26:31.709Z,0.00
2022-11-16T02:27:31.698Z,0.00
2022-11-16T02:28:31.984Z,0.00
2022-11-16T02:29:31.664Z,0.00
2022-11-16T02:30:31.640Z,0.00
2022-11-16T02:31:31.624Z,0.00
2022-11-16T02:32:31.610Z,0.00
2022-11-16T02:33:31.616Z,0.00
2022-11-16T02:34:31.585Z,0.00
2022-11-16T02:35:31.570Z,0.00
2022-11-16T02:36:31.714Z,0.00
2022-11-16T02:37:31.543Z,0.00
2022-11-16T02:38:31.884Z,0.00
2022-11-16T02:39:31.515Z,0.00
2022-11-16T02:40:31.522Z,0.00
2022-11-16T02:41:30.518Z,0.00
2022-11-16T02:42:31.478Z,0.00
2022-11-16T02:43:31.481Z,0.00
2022-11-16T02:44:31.450Z,0.00
2022-11-16T02:45:31.438Z,0.00
2022-11-16T02:46:31.418Z,0.00
2022-11-16T02:47:31.410Z,0.00
2022-11-16T02:48:31.872Z,0.00
2022-11-16T02:49:31.383Z,0.00
2022-11-16T02:50:31.377Z,0.00
2022-11-16T02:51:31.345Z,0.00
2022-11-16T02:52:31.338Z,0.00
2022-11-16T02:53:31.327Z,0.00
2022-11-16T02:54:31.315Z,0.00
2022-11-16T02:55:31.298Z,0.00
2022-11-16T02:56:31.276Z,0.00
2022-11-16T02:57:31.277Z,0.00
2022-11-16T02:58:31.480Z,0.00
2022-11-16T02:59:31.247Z,0.00
2022-11-16T03:00:31.227Z,0.00
2022-11-16T03:01:31.283Z,0.00
2022-11-16T03:02:31.194Z,0.00
2022-11-16T03:03:31.192Z,0.00
2022-11-16T03:04:31.190Z,0.00
2022-11-16T03:05:31.155Z,0.00
2022-11-16T03:06:31.139Z,0.00
2022-11-16T03:07:31.206Z,0.00
2022-11-16T03:08:31.551Z,0.00
2022-11-16T03:09:31.112Z,0.00
2022-11-16T03:10:31.106Z,0.00
2022-11-16T03:11:31.080Z,0.00
2022-11-16T03:12:31.069Z,0.00
2022-11-16T03:13:31.067Z,0.00
2022-11-16T03:14:31.049Z,0.00
2022-11-16T03:15:31.021Z,0.00
2022-11-16T03:16:31.000Z,0.00
2022-11-16T03:17:31.010Z,0.00
2022-11-16T03:18:31.383Z,0.00
2022-11-16T03:19:30.989Z,0.00
2022-11-16T03:20:30.955Z,0.00
2022-11-16T03:21:30.937Z,0.00
2022-11-16T03:22:30.930Z,0.00
2022-11-16T03:23:30.916Z,0.00
2022-11-16T03:24:30.906Z,0.00
2022-11-16T03:25:30.889Z,0.00
2022-11-16T03:26:30.872Z,0.00
2022-11-16T03:27:30.883Z,0.00
2022-11-16T03:28:31.148Z,0.00
2022-11-16T03:29:30.839Z,0.00
2022-11-16T03:30:30.816Z,0.00
2022-11-16T03:31:30.800Z,0.00
2022-11-16T03:32:30.809Z,0.00
2022-11-16T03:33:30.788Z,0.00
2022-11-16T03:34:30.791Z,0.00
2022-11-16T03:35:30.769Z,0.00
2022-11-16T03:36:30.737Z,0.00
2022-11-16T03:37:30.739Z,0.00
2022-11-16T03:38:30.946Z,0.00
2022-11-16T03:39:30.739Z,0.00
2022-11-16T03:40:30.685Z,0.00
2022-11-16T03:41:30.671Z,0.00
2022-11-16T03:42:30.680Z,0.00
2022-11-16T03:43:30.649Z,0.00
2022-11-16T03:44:30.634Z,0.00
2022-11-16T03:45:30.616Z,0.00
2022-11-16T03:46:30.602Z,0.00
2022-11-16T03:47:30.591Z,0.00
2022-11-16T03:48:30.921Z,0.00
2022-11-16T03:49:30.570Z,0.00
2022-11-16T03:50:30.539Z,0.00
2022-11-16T03:51:30.534Z,0.00
2022-11-16T03:52:30.524Z,0.00
2022-11-16T03:53:30.512Z,0.00
2022-11-16T03:54:30.502Z,0.00
2022-11-16T03:55:30.474Z,0.00
2022-11-16T03:56:30.476Z,0.00
2022-11-16T03:57:30.490Z,0.00
2022-11-16T03:58:31.944Z,0.00
2022-11-16T03:59:30.443Z,0.00
2022-11-16T04:00:30.466Z,0.00
2022-11-16T04:01:30.455Z,0.00
2022-11-16T04:02:30.397Z,0.00
2022-11-16T04:03:30.430Z,0.00
2022-11-16T04:04:30.365Z,0.00
2022-11-16T04:05:30.341Z,0.00
2022-11-16T04:06:30.322Z,0.00
2022-11-16T04:07:30.362Z,0.00
2022-11-16T04:08:30.441Z,0.00
2022-11-16T04:09:30.307Z,0.00
2022-11-16T04:10:30.262Z,0.00
2022-11-16T04:11:29.250Z,0.00
2022-11-16T04:12:30.247Z,0.00
2022-11-16T04:13:30.232Z,0.00
2022-11-16T04:14:30.230Z,0.00
2022-11-16T04:15:30.215Z,0.00
2022-11-16T04:16:30.232Z,0.00
2022-11-16T04:17:30.173Z,0.00
2022-11-16T04:18:30.222Z,0.00
2022-11-16T04:19:30.231Z,0.00
2022-11-16T04:20:30.133Z,0.00
2022-11-16T04:21:30.135Z,0.00
2022-11-16T04:22:30.118Z,0.00
2022-11-16T04:23:30.094Z,0.00
2022-11-16T04:24:30.097Z,0.00
2022-11-16T04:25:30.105Z,0.00
2022-11-16T04:26:30.066Z,0.00
2022-11-16T04:27:30.037Z,0.00
2022-11-16T04:28:30.019Z,0.00
2022-11-16T04:29:30.022Z,0.00
2022-11-16T04:30:30.002Z,0.00
2022-11-16T04:31:29.997Z,0.00
2022-11-16T04:32:29.977Z,0.00
2022-11-16T04:33:29.959Z,0.00
2022-11-16T04:34:29.965Z,0.00
2022-11-16T04:35:29.976Z,0.00
2022-11-16T04:36:29.913Z,0.00
2022-11-16T04:37:29.922Z,0.00
2022-11-16T04:38:29.916Z,0.00
2022-11-16T04:39:29.868Z,0.00
2022-11-16T04:40:29.891Z,0.00
2022-11-16T04:41:29.852Z,0.00
2022-11-16T04:42:30.776Z,0.00
2022-11-16T04:43:29.857Z,0.00
2022-11-16T04:44:30.100Z,0.00
2022-11-16T04:45:29.801Z,0.00
2022-11-16T04:46:29.778Z,0.00
2022-11-16T04:47:29.765Z,0.00
2022-11-16T04:48:29.759Z,0.00
2022-11-16T04:49:29.730Z,0.00
2022-11-16T04:50:29.743Z,0.00
2022-11-16T04:51:29.722Z,0.00
2022-11-16T04:52:29.841Z,0.00
2022-11-16T04:53:29.682Z,0.00
2022-11-16T04:54:29.708Z,0.00
2022-11-16T04:55:29.666Z,0.00
2022-11-16T04:56:29.664Z,0.00
2022-11-16T04:57:29.644Z,0.00
2022-11-16T04:58:29.613Z,0.00
2022-11-16T04:59:29.623Z,0.00
2022-11-16T05:00:29.590Z,0.00
2022-11-16T05:01:29.651Z,0.00
2022-11-16T05:02:29.594Z,0.00
2022-11-16T05:03:29.546Z,0.00
2022-11-16T05:04:29.545Z,0.00
2022-11-16T05:05:29.531Z,0.00
2022-11-16T05:06:29.507Z,0.00
2022-11-16T05:07:29.533Z,0.00
2022-11-16T05:08:29.486Z,0.00
2022-11-16T05:09:29.464Z,0.00
2022-11-16T05:10:29.461Z,0.00
2022-11-16T05:11:29.441Z,0.00
2022-11-16T05:12:29.555Z,0.00
2022-11-16T05:13:29.407Z,0.00
2022-11-16T05:14:29.403Z,0.00
2022-11-16T05:15:29.389Z,0.00
2022-11-16T05:16:29.372Z,0.00
2022-11-16T05:17:29.362Z,0.00
2022-11-16T05:18:29.348Z,0.00
2022-11-16T05:19:29.367Z,0.00
2022-11-16T05:20:29.316Z,0.00
2022-11-16T05:21:29.298Z,0.00
2022-11-16T05:22:29.305Z,0.00
2022-11-16T05:23:29.279Z,0.00
2022-11-16T05:24:29.268Z,0.00
2022-11-16T05:25:33.835Z,0.00
2022-11-16T05:26:29.247Z,0.00
2022-11-16T05:27:29.266Z,0.00
2022-11-16T05:28:29.219Z,0.00
2022-11-16T05:29:29.183Z,0.00
2022-11-16T05:30:29.293Z,0.00
2022-11-16T05:31:29.182Z,0.00
2022-11-16T05:32:29.153Z,0.00
2022-11-16T05:33:29.133Z,0.00
2022-11-16T05:34:29.137Z,0.00
2022-11-16T05:35:29.124Z,0.00
2022-11-16T05:36:29.114Z,0.00
2022-11-16T05:37:29.094Z,0.00
2022-11-16T05:38:29.077Z,0.00
2022-11-16T05:39:29.069Z,0.00
2022-11-16T05:40:29.069Z,0.00
2022-11-16T05:41:29.041Z,0.00
2022-11-16T05:42:29.037Z,0.00
2022-11-16T05:43:28.999Z,0.00
2022-11-16T05:44:29.006Z,0.00
2022-11-16T05:45:28.978Z,0.00
2022-11-16T05:46:28.969Z,0.00
2022-11-16T05:47:28.952Z,0.00
2022-11-16T05:48:28.943Z,0.00
2022-11-16T05:49:28.925Z,0.00
2022-11-16T05:50:28.926Z,0.00
2022-11-16T05:51:28.919Z,0.00
2022-11-16T05:52:28.886Z,0.00
2022-11-16T05:53:28.875Z,0.00
2022-11-16T05:54:27.905Z,0.00
2022-11-16T05:55:28.842Z,0.00
2022-11-16T05:56:28.900Z,0.00
2022-11-16T05:57:28.817Z,0.00
2022-11-16T05:58:28.867Z,0.00
2022-11-16T05:59:28.783Z,0.00
2022-11-16T06:00:28.776Z,0.00
2022-11-16T06:01:28.760Z,0.00
2022-11-16T06:02:28.753Z,0.00
2022-11-16T06:03:28.777Z,0.00
2022-11-16T06:04:28.718Z,0.00
2022-11-16T06:05:28.820Z,0.00
2022-11-16T06:06:28.693Z,0.00
2022-11-16T06:07:28.791Z,0.00
2022-11-16T06:08:28.679Z,0.00
2022-11-16T06:09:28.643Z,0.00
2022-11-16T06:10:28.640Z,0.00
2022-11-16T06:11:34.305Z,0.00
2022-11-16T06:12:28.671Z,0.00
2022-11-16T06:13:28.587Z,0.00
2022-11-16T06:14:28.582Z,0.00
2022-11-16T06:15:28.587Z,0.00
2022-11-16T06:16:28.562Z,0.00
2022-11-16T06:17:28.603Z,0.00
2022-11-16T06:18:28.529Z,0.00
2022-11-16T06:19:32.381Z,0.00
2022-11-16T06:20:28.522Z,0.00
2022-11-16T06:21:28.559Z,0.00
2022-11-16T06:22:28.484Z,0.00
2022-11-16T06:23:28.455Z,0.00
2022-11-16T06:24:28.463Z,0.00
2022-11-16T06:25:28.460Z,0.00
2022-11-16T06:26:28.450Z,0.00
2022-11-16T06:27:28.406Z,0.00
2022-11-16T06:28:28.398Z,0.00
2022-11-16T06:29:28.382Z,0.00
2022-11-16T06:30:28.384Z,0.00
2022-11-16T06:31:28.361Z,0.00
2022-11-16T06:32:28.347Z,0.00
2022-11-16T06:33:32.315Z,0.00
2022-11-16T06:34:28.331Z,0.00
2022-11-16T06:35:28.306Z,0.00
2022-11-16T06:36:28.294Z,0.00
2022-11-16T06:37:28.275Z,0.00
2022-11-16T06:38:28.258Z,0.00
2022-11-16T06:39:28.228Z,0.00
2022-11-16T06:40:28.244Z,0.00
2022-11-16T06:41:28.224Z,0.00
2022-11-16T06:42:28.276Z,0.00
2022-11-16T06:43:28.328Z,0.00
2022-11-16T06:44:28.228Z,0.00
2022-11-16T06:45:28.161Z,0.00
2022-11-16T06:46:28.181Z,0.00
2022-11-16T06:47:28.185Z,0.00
2022-11-16T06:48:28.113Z,0.00
2022-11-16T06:49:28.116Z,0.00
2022-11-16T06:50:28.145Z,0.00
2022-11-16T06:51:28.093Z,0.00
2022-11-16T06:53:42.785Z,0.00
2022-11-16T06:54:40.451Z,0.00
2022-11-16T06:55:40.426Z,0.00
2022-11-16T06:56:40.449Z,0.00
2022-11-16T06:57:40.411Z,0.00
2022-11-16T06:58:42.813Z,0.00
2022-11-16T06:59:40.372Z,0.00
2022-11-16T07:00:40.639Z,0.00
2022-11-16T07:01:40.421Z,0.00
2022-11-16T07:02:40.334Z,0.00
2022-11-16T07:03:40.314Z,0.00
2022-11-16T07:04:40.308Z,0.00
2022-11-16T07:05:40.298Z,0.00
2022-11-16T07:06:40.302Z,0.00
2022-11-16T07:07:40.301Z,0.00
2022-11-16T07:08:40.261Z,0.00
2022-11-16T07:09:40.234Z,0.00
2022-11-16T07:10:40.236Z,0.00
2022-11-16T07:11:40.240Z,0.00
2022-11-16T07:12:40.206Z,0.00
2022-11-16T07:13:40.180Z,0.00
2022-11-16T07:14:40.165Z,0.00
2022-11-16T07:15:40.157Z,0.00
2022-11-16T07:16:40.195Z,0.00
2022-11-16T07:17:40.129Z,0.00
2022-11-16T07:18:40.131Z,0.00
2022-11-16T07:19:40.107Z,0.00
2022-11-16T07:20:40.104Z,0.00
2022-11-16T07:21:40.092Z,0.00
2022-11-16T07:22:40.070Z,0.00
2022-11-16T07:23:40.066Z,0.00
2022-11-16T07:24:40.049Z,0.00
2022-11-16T07:25:40.019Z,0.00
2022-11-16T07:26:40.026Z,0.00
2022-11-16T07:27:40.014Z,0.00
2022-11-16T07:28:46.529Z,0.00
2022-11-16T07:29:39.967Z,0.00
2022-11-16T07:30:39.978Z,0.00
2022-11-16T07:31:39.983Z,0.00
2022-11-16T07:32:40.020Z,0.00
2022-11-16T07:33:39.919Z,0.00
2022-11-16T07:34:39.933Z,5.62
2022-11-16T07:35:39.887Z,5.62
2022-11-16T07:36:39.900Z,5.62
2022-11-16T07:37:39.863Z,5.62
2022-11-16T07:38:39.876Z,11.25
2022-11-16T07:39:39.844Z,11.25
2022-11-16T07:40:39.974Z,11.25
2022-11-16T07:41:39.811Z,11.25
2022-11-16T07:42:39.834Z,11.25
2022-11-16T07:43:39.789Z,11.25
2022-11-16T07:44:39.775Z,11.25
2022-11-16T07:45:39.805Z,16.88
2022-11-16T07:46:48.095Z,16.88
2022-11-16T07:47:39.740Z,16.88
2022-11-16T07:48:39.724Z,16.88
2022-11-16T07:49:39.704Z,22.50
2022-11-16T07:50:39.690Z,22.50
2022-11-16T07:51:39.780Z,22.50
2022-11-16T07:52:39.681Z,28.12
2022-11-16T07:53:39.662Z,28.12
2022-11-16T07:54:39.659Z,28.12
2022-11-16T07:55:39.654Z,28.12
2022-11-16T07:56:39.629Z,28.12
2022-11-16T07:57:39.601Z,28.12
2022-11-16T07:58:39.577Z,28.12
2022-11-16T07:59:39.586Z,28.12
2022-11-16T08:00:39.566Z,28.12
2022-11-16T08:01:39.651Z,22.50
2022-11-16T08:02:39.562Z,22.50
2022-11-16T08:03:39.497Z,16.88
2022-11-16T08:04:39.519Z,16.88
2022-11-16T08:05:39.498Z,16.88
2022-11-16T08:06:39.493Z,16.88
2022-11-16T08:07:39.550Z,22.50
2022-11-16T08:08:39.456Z,22.50
2022-11-16T08:09:39.675Z,16.88
2022-11-16T08:10:39.425Z,16.88
2022-11-16T08:11:39.441Z,16.88
2022-11-16T08:12:39.410Z,22.50
2022-11-16T08:13:39.392Z,28.12
2022-11-16T08:14:39.465Z,28.12
2022-11-16T08:15:39.564Z,22.50
2022-11-16T08:16:39.402Z,22.50
2022-11-16T08:17:39.363Z,22.50
2022-11-16T08:18:39.318Z,16.88
2022-11-16T08:19:39.300Z,16.88
2022-11-16T08:20:39.286Z,11.25
2022-11-16T08:21:39.289Z,11.25
2022-11-16T08:22:39.270Z,22.50
2022-11-16T08:23:39.237Z,22.50
2022-11-16T08:24:39.247Z,28.12
2022-11-16T08:25:39.209Z,28.12
2022-11-16T08:26:39.228Z,22.50
2022-11-16T08:27:39.451Z,22.50
2022-11-16T08:28:39.231Z,28.12
2022-11-16T08:29:39.166Z,28.12
2022-11-16T08:30:39.236Z,22.50
2022-11-16T08:31:39.163Z,22.50
2022-11-16T08:32:39.132Z,22.50
2022-11-16T08:33:39.292Z,16.88
2022-11-16T08:34:39.186Z,11.25
2022-11-16T08:35:39.097Z,11.25
2022-11-16T08:36:39.097Z,11.25
2022-11-16T08:37:39.058Z,11.25
2022-11-16T08:38:39.047Z,11.25
2022-11-16T08:39:39.033Z,11.25
2022-11-16T08:40:39.030Z,11.25
2022-11-16T08:41:39.008Z,16.88
2022-11-16T08:42:43.528Z,16.88
2022-11-16T08:43:38.975Z,22.50
2022-11-16T08:44:38.969Z,28.12
2022-11-16T08:45:38.963Z,28.12
2022-11-16T08:46:39.075Z,28.12
2022-11-16T08:47:38.937Z,28.12
2022-11-16T08:48:38.915Z,28.12
2022-11-16T08:49:38.894Z,28.12
2022-11-16T08:51:02.323Z,28.12
2022-11-16T08:51:38.899Z,28.12
2022-11-16T08:52:38.872Z,28.12
2022-11-16T08:53:38.839Z,28.12
2022-11-16T08:54:38.849Z,28.12
2022-11-16T08:55:38.812Z,33.75
2022-11-16T08:56:38.827Z,39.38
2022-11-16T08:57:38.841Z,39.38
2022-11-16T08:58:38.793Z,45.00
2022-11-16T08:59:38.779Z,50.62
2022-11-16T09:00:38.752Z,56.25
2022-11-16T09:01:38.784Z,56.25
2022-11-16T09:02:38.762Z,56.25
2022-11-16T09:03:38.718Z,56.25
2022-11-16T09:04:38.716Z,56.25
2022-11-16T09:05:38.680Z,61.88
2022-11-16T09:06:38.685Z,61.88
2022-11-16T09:07:38.697Z,61.88
2022-11-16T09:08:38.701Z,61.88
2022-11-16T09:09:38.621Z,61.88
2022-11-16T09:10:38.687Z,61.88
2022-11-16T09:11:38.607Z,61.88
2022-11-16T09:12:38.627Z,67.50
2022-11-16T09:13:38.567Z,67.50
2022-11-16T09:14:38.572Z,61.88
2022-11-16T09:15:38.584Z,56.25
2022-11-16T09:16:38.560Z,56.25
2022-11-16T09:17:38.565Z,61.88
2022-11-16T09:18:38.512Z,61.88
2022-11-16T09:19:38.528Z,61.88
2022-11-16T09:20:38.477Z,61.88
2022-11-16T09:21:38.470Z,61.88
2022-11-16T09:22:38.602Z,56.25
2022-11-16T09:23:38.455Z,50.62
2022-11-16T09:24:38.436Z,50.62
2022-11-16T09:25:38.418Z,45.00
2022-11-16T09:26:38.450Z,45.00
2022-11-16T09:27:38.410Z,45.00
2022-11-16T09:28:38.384Z,39.38
2022-11-16T09:29:38.390Z,39.38
2022-11-16T09:30:38.382Z,45.00
2022-11-16T09:31:38.355Z,50.62
2022-11-16T09:32:38.324Z,61.88
2022-11-16T09:33:38.464Z,50.62
2022-11-16T09:34:38.311Z,61.88
2022-11-16T09:35:38.276Z,73.12
2022-11-16T09:36:38.283Z,73.12
2022-11-16T09:37:38.264Z,73.12
2022-11-16T09:38:55.677Z,67.50
2022-11-16T09:39:38.306Z,61.88
2022-11-16T09:40:38.223Z,61.88
2022-11-16T09:41:38.623Z,73.12
2022-11-16T09:42:38.990Z,67.50
2022-11-16T09:43:44.125Z,78.75
2022-11-16T09:44:38.281Z,84.38
2022-11-16T09:45:38.441Z,101.25
2022-11-16T09:46:38.891Z,106.88
2022-11-16T09:47:38.353Z,101.25
2022-11-16T09:48:38.597Z,118.12
2022-11-16T09:49:38.468Z,112.50
2022-11-16T09:50:38.192Z,106.88
2022-11-16T09:51:38.423Z,101.25
2022-11-16T09:52:38.223Z,95.62
2022-11-16T09:53:38.561Z,95.62
2022-11-16T09:54:38.382Z,95.62
2022-11-16T09:55:38.108Z,90.00
2022-11-16T09:56:38.176Z,90.00
2022-11-16T09:57:38.121Z,84.38
2022-11-16T09:58:38.867Z,67.50
2022-11-16T09:59:38.158Z,67.50
2022-11-16T10:00:38.319Z,61.88
2022-11-16T10:01:38.026Z,61.88
2022-11-16T10:02:38.851Z,56.25
2022-11-16T10:03:37.905Z,56.25
2022-11-16T10:04:38.177Z,56.25
2022-11-16T10:05:38.872Z,56.25
2022-11-16T10:06:38.454Z,56.25
2022-11-16T10:07:38.182Z,56.25
2022-11-16T10:08:37.948Z,56.25
2022-11-16T10:09:38.002Z,50.62
2022-11-16T10:10:38.110Z,50.62
2022-11-16T10:11:38.303Z,50.62
2022-11-16T10:12:37.802Z,50.62
2022-11-16T10:13:37.961Z,45.00
2022-11-16T10:14:38.120Z,50.62
2022-11-16T10:15:37.775Z,50.62
2022-11-16T10:16:37.799Z,50.62
2022-11-16T10:17:38.056Z,50.62
2022-11-16T10:18:39.037Z,56.25
2022-11-16T10:19:38.689Z,61.88
2022-11-16T10:20:37.817Z,61.88
2022-11-16T10:21:38.542Z,67.50
2022-11-16T10:22:37.775Z,56.25
2022-11-16T10:23:38.978Z,56.25
2022-11-16T10:24:37.846Z,67.50
2022-11-16T10:25:37.688Z,61.88
2022-11-16T10:26:37.932Z,67.50
2022-11-16T10:27:37.925Z,78.75
2022-11-16T10:28:37.695Z,73.12
2022-11-16T10:29:37.930Z,84.38
2022-11-16T10:30:38.281Z,84.38
2022-11-16T10:31:37.535Z,84.38
2022-11-16T10:32:37.514Z,84.38
2022-11-16T10:33:37.771Z,90.00
2022-11-16T10:34:37.482Z,84.38
2022-11-16T10:35:37.486Z,78.75
2022-11-16T10:36:37.463Z,84.38
2022-11-16T10:37:37.548Z,84.38
2022-11-16T10:38:37.460Z,84.38
2022-11-16T10:39:37.643Z,84.38
2022-11-16T10:40:37.442Z,78.75
2022-11-16T10:41:37.577Z,84.38
2022-11-16T10:42:37.598Z,78.75
2022-11-16T10:43:37.662Z,73.12
2022-11-16T10:44:38.262Z,84.38
2022-11-16T10:45:37.351Z,84.38
2022-11-16T10:46:38.518Z,78.75
2022-11-16T10:47:37.812Z,78.75
2022-11-16T10:48:37.576Z,73.12
2022-11-16T10:49:37.644Z,78.75
2022-11-16T10:50:37.288Z,67.50
2022-11-16T10:51:37.268Z,61.88
2022-11-16T10:52:37.282Z,67.50
2022-11-16T10:53:37.558Z,78.75
2022-11-16T10:54:42.860Z,84.38
2022-11-16T10:55:37.366Z,90.00
2022-11-16T10:56:37.262Z,90.00
2022-11-16T10:57:37.333Z,101.25
2022-11-16T10:58:37.203Z,101.25
2022-11-16T10:59:37.589Z,95.62
2022-11-16T11:00:37.610Z,101.25
2022-11-16T11:01:37.152Z,106.88
2022-11-16T11:02:38.531Z,123.75
2022-11-16T11:03:37.364Z,129.38
2022-11-16T11:04:37.096Z,146.25
2022-11-16T11:05:37.177Z,129.38
2022-11-16T11:06:37.899Z,129.38
2022-11-16T11:07:38.216Z,123.75
2022-11-16T11:08:37.120Z,129.38
2022-11-16T11:09:37.028Z,112.50
2022-11-16T11:10:37.032Z,106.88
2022-11-16T11:11:37.031Z,95.62
2022-11-16T11:12:36.992Z,90.00
2022-11-16T11:13:37.202Z,78.75
2022-11-16T11:14:37.001Z,78.75
2022-11-16T11:15:36.951Z,73.12
2022-11-16T11:16:36.963Z,61.88
2022-11-16T11:17:36.953Z,56.25
2022-11-16T11:18:36.921Z,56.25
2022-11-16T11:19:36.895Z,73.12
2022-11-16T11:20:41.643Z,73.12
2022-11-16T11:21:36.879Z,56.25
2022-11-16T11:22:36.893Z,67.50
2022-11-16T11:23:36.973Z,73.12
2022-11-16T11:24:44.427Z,73.12
2022-11-16T11:25:36.823Z,73.12
2022-11-16T11:26:37.449Z,67.50
2022-11-16T11:27:36.797Z,56.25
2022-11-16T11:28:36.770Z,56.25
2022-11-16T11:29:36.762Z,56.25
2022-11-16T11:30:36.739Z,56.25
2022-11-16T11:31:36.814Z,73.12
2022-11-16T11:32:36.719Z,67.50
2022-11-16T11:33:36.990Z,73.12
2022-11-16T11:34:36.700Z,56.25
2022-11-16T11:35:36.675Z,67.50
2022-11-16T11:36:36.681Z,67.50
2022-11-16T11:37:36.665Z,67.50
2022-11-16T11:38:36.643Z,78.75
2022-11-16T11:39:36.737Z,67.50
2022-11-16T11:40:36.603Z,84.38
2022-11-16T11:41:36.614Z,95.62
2022-11-16T11:42:36.603Z,73.12
2022-11-16T11:43:36.969Z,84.38
2022-11-16T11:44:36.581Z,90.00
2022-11-16T11:45:36.569Z,90.00
2022-11-16T11:47:06.730Z,118.12
2022-11-16T11:48:36.502Z,129.38
2022-11-16T11:49:36.484Z,129.38
2022-11-16T11:50:36.479Z,112.50
2022-11-16T11:51:36.482Z,123.75
2022-11-16T11:52:36.450Z,129.38
2022-11-16T11:53:36.782Z,118.12
2022-11-16T11:54:39.223Z,95.62
2022-11-16T11:55:36.407Z,67.50
2022-11-16T11:56:36.392Z,67.50
2022-11-16T11:57:36.418Z,56.25
2022-11-16T11:58:36.361Z,67.50
2022-11-16T11:59:36.352Z,67.50
2022-11-16T12:00:36.397Z,67.50
2022-11-16T12:01:36.319Z,67.50
2022-11-16T12:02:36.386Z,67.50
2022-11-16T12:03:36.582Z,67.50
2022-11-16T12:04:36.324Z,56.25
2022-11-16T12:05:58.465Z,56.25
2022-11-16T12:06:41.163Z,56.25
2022-11-16T12:07:36.351Z,61.88
2022-11-16T12:16:08.551Z,22.50
2022-11-16T12:17:09.536Z,61.88
2022-11-16T12:18:09.537Z,61.88
2022-11-16T12:19:09.566Z,67.50
2022-11-16T12:20:09.520Z,78.75
2022-11-16T12:21:09.492Z,78.75
2022-11-16T12:22:09.461Z,90.00
2022-11-16T12:23:09.461Z,90.00
2022-11-16T12:24:09.463Z,90.00
2022-11-16T12:25:09.463Z,78.75
2022-11-16T12:26:09.418Z,84.38
2022-11-16T12:27:09.397Z,95.62
2022-11-16T12:28:09.452Z,90.00
2022-11-16T12:29:09.500Z,78.75
2022-11-16T12:30:09.383Z,56.25
2022-11-16T12:31:09.491Z,61.88
2022-11-16T12:32:09.375Z,50.62
2022-11-16T12:33:09.370Z,50.62
2022-11-16T12:34:09.335Z,56.25
2022-11-16T12:35:09.334Z,50.62
2022-11-16T12:36:09.286Z,50.62
2022-11-16T12:37:09.280Z,50.62
2022-11-16T12:38:09.253Z,50.62
2022-11-16T12:39:09.246Z,50.62
2022-11-16T12:40:09.238Z,50.62
2022-11-16T12:41:09.220Z,50.62
2022-11-16T12:42:09.202Z,67.50
2022-11-16T12:43:09.193Z,67.50
2022-11-16T12:44:09.172Z,56.25
2022-11-16T12:45:09.182Z,67.50
2022-11-16T12:46:09.185Z,67.50
2022-11-16T12:47:09.147Z,67.50
2022-11-16T12:48:09.120Z,67.50
2022-11-16T12:49:09.125Z,67.50
2022-11-16T12:50:09.098Z,56.25
2022-11-16T12:51:08.098Z,67.50
2022-11-16T12:52:09.065Z,67.50
2022-11-16T12:53:09.056Z,73.12
2022-11-16T12:54:09.038Z,84.38
2022-11-16T12:55:26.495Z,73.12
2022-11-16T12:56:09.039Z,67.50
2022-11-16T12:57:09.007Z,67.50
2022-11-16T12:58:08.986Z,67.50
2022-11-16T12:59:08.994Z,67.50
2022-11-16T13:00:08.963Z,67.50
2022-11-16T13:01:09.037Z,61.88
2022-11-16T13:02:08.934Z,61.88
2022-11-16T13:03:08.935Z,56.25
2022-11-16T13:04:08.909Z,56.25
2022-11-16T13:05:08.899Z,56.25
2022-11-16T13:06:08.883Z,56.25
2022-11-16T13:07:11.174Z,56.25
2022-11-16T13:08:08.878Z,56.25
2022-11-16T13:09:08.875Z,56.25
2022-11-16T13:10:08.828Z,56.25
2022-11-16T13:11:08.842Z,56.25
2022-11-16T13:12:08.794Z,56.25
2022-11-16T13:13:30.139Z,56.25
2022-11-16T13:14:08.779Z,56.25
2022-11-16T13:15:08.953Z,56.25
2022-11-16T13:16:08.780Z,56.25
2022-11-16T13:17:08.748Z,56.25